Time;durP1;ratioP1;P1;durP2;ratioP2;P2;SDS_P1;SDS_P2;PMS_P1;PMS_P2;Temp;Humidity;BMP_temperature;BMP_pressure;BME280_temperature;BME280_humidity;BME280_pressure;Samples;Min_cycle;Max_cycle;Signal;HPM_P1;HPM_P2
2020/12/22 00:00:37;;;;;;;3.13;2.53;;;8.60;99.90;;;;;;5015785;28;20452;-89
2020/12/22 00:03:04;;;;;;;2.13;1.77;;;8.90;99.90;;;;;;5016526;28;20454;-91
2020/12/22 00:05:30;;;;;;;2.17;1.83;;;;;;;;;;5018006;28;20472;-92
2020/12/22 00:07:57;;;;;;;1.33;1.20;;;8.80;99.90;;;;;;5018486;28;20441;-90
2020/12/22 00:10:24;;;;;;;1.47;1.37;;;;;;;;;;5015048;28;20455;-91
2020/12/22 00:12:50;;;;;;;1.57;1.47;;;9.40;99.90;;;;;;5022387;28;20431;-94
2020/12/22 00:15:17;;;;;;;1.53;1.10;;;8.80;99.90;;;;;;5019124;28;20459;-93
2020/12/22 00:17:44;;;;;;;2.50;2.30;;;9.10;99.90;;;;;;5016551;28;20497;-90
2020/12/22 00:20:11;;;;;;;1.27;1.17;;;;;;;;;;5020517;28;20464;-94
2020/12/22 00:22:38;;;;;;;2.40;2.20;;;;;;;;;;5014577;28;20498;-90
2020/12/22 00:25:05;;;;;;;1.83;1.60;;;9.10;99.90;;;;;;5017032;28;20448;-90
2020/12/22 00:27:33;;;;;;;2.03;1.70;;;10.80;99.90;;;;;;5023588;28;20440;-88
2020/12/22 00:30:00;;;;;;;3.60;2.80;;;9.00;99.90;;;;;;5028505;28;20432;-89
2020/12/22 00:32:27;;;;;;;6.93;2.40;;;9.10;99.90;;;;;;5020326;28;20494;-92
2020/12/22 00:34:53;;;;;;;2.70;2.50;;;;;;;;;;5035723;23;20451;-88
2020/12/22 00:37:20;;;;;;;4.03;2.23;;;;;;;;;;5051092;28;20480;-88
2020/12/22 00:42:12;;;;;;;2.20;1.33;;;9.20;99.90;;;;;;5031509;23;20487;-88
2020/12/22 00:44:38;;;;;;;2.47;2.27;;;9.70;99.90;;;;;;5021078;28;20253;-93
2020/12/22 00:47:05;;;;;;;1.77;1.60;;;9.50;99.90;;;;;;5037458;23;20518;-89
2020/12/22 00:49:31;;;;;;;2.93;1.80;;;;;;;;;;5021727;28;20459;-90
2020/12/22 00:51:58;;;;;;;3.60;2.10;;;9.50;99.90;;;;;;5026185;28;20455;-88
2020/12/22 00:54:25;;;;;;;1.37;1.00;;;9.30;99.90;;;;;;5022074;28;20445;-91
2020/12/22 00:56:52;;;;;;;1.37;1.10;;;;;;;;;;5025545;28;20471;-91
2020/12/22 00:59:19;;;;;;;1.63;1.20;;;9.50;99.90;;;;;;5020423;28;20464;-88
2020/12/22 01:01:45;;;;;;;2.13;0.93;;;9.70;99.90;;;;;;5023683;28;20440;-89
2020/12/22 01:04:12;;;;;;;8.20;1.80;;;9.30;99.90;;;;;;5023336;28;20459;-92
2020/12/22 01:06:39;;;;;;;1.70;1.60;;;9.50;99.90;;;;;;5014059;28;20450;-88
2020/12/22 01:09:10;;;;;;;1.63;1.50;;;9.60;99.90;;;;;;5015534;28;20450;-91
2020/12/22 01:11:37;;;;;;;2.70;1.50;;;9.30;99.90;;;;;;5021204;28;20449;-91
2020/12/22 01:14:04;;;;;;;1.10;0.80;;;9.70;99.90;;;;;;5018620;28;20444;-94
2020/12/22 01:16:32;;;;;;;1.33;1.00;;;9.60;99.90;;;;;;5017656;28;20814;-92
2020/12/22 01:18:59;;;;;;;2.17;1.60;;;;;;;;;;5027888;28;20492;-91
2020/12/22 01:21:25;;;;;;;0.87;0.63;;;;;;;;;;5035034;23;20501;-90
2020/12/22 01:23:52;;;;;;;1.53;1.43;;;9.60;99.90;;;;;;5027077;28;20458;-89
2020/12/22 01:26:19;;;;;;;0.93;0.93;;;9.60;99.90;;;;;;5024129;28;20449;-94
2020/12/22 01:28:45;;;;;;;1.00;0.90;;;9.70;99.90;;;;;;5022542;28;20446;-89
2020/12/22 01:31:12;;;;;;;1.00;0.87;;;;;;;;;;5024471;28;20482;-88
2020/12/22 01:33:39;;;;;;;1.33;1.00;;;9.70;99.90;;;;;;5026062;28;20442;-88
2020/12/22 01:36:09;;;;;;;1.27;1.07;;;9.90;99.90;;;;;;5035533;23;20521;-91
2020/12/22 01:38:35;;;;;;;0.83;0.73;;;9.30;99.90;;;;;;5026864;28;20468;-90
2020/12/22 01:41:02;;;;;;;0.80;0.80;;;;;;;;;;5023388;28;20469;-89
2020/12/22 01:43:28;;;;;;;0.80;0.67;;;;;;;;;;5028021;28;20829;-94
2020/12/22 01:45:54;;;;;;;0.70;0.70;;;9.50;99.90;;;;;;5028172;28;20452;-89
2020/12/22 01:48:21;;;;;;;1.03;0.60;;;9.80;99.90;;;;;;5023178;28;20776;-89
2020/12/22 01:50:48;;;;;;;0.90;0.60;;;10.20;99.90;;;;;;5029377;28;20451;-88
2020/12/22 01:53:15;;;;;;;0.60;0.50;;;;;;;;;;5023968;28;20476;-89
2020/12/22 01:55:42;;;;;;;0.60;0.40;;;10.20;99.90;;;;;;5035532;23;20492;-88
2020/12/22 01:58:09;;;;;;;0.50;0.40;;;;;;;;;;5024014;28;20487;-88
2020/12/22 02:00:35;;;;;;;0.50;0.40;;;10.40;99.90;;;;;;5020954;28;20447;-87
2020/12/22 02:03:04;;;;;;;0.50;0.33;;;10.10;99.90;;;;;;5019674;28;20445;-93
2020/12/22 02:05:32;;;;;;;0.40;0.30;;;10.20;99.90;;;;;;5025989;28;20454;-88
2020/12/22 02:07:59;;;;;;;1.50;0.30;;;10.30;99.90;;;;;;5024762;28;20461;-89
2020/12/22 02:10:25;;;;;;;0.50;0.30;;;;;;;;;;5020900;28;20498;-88
2020/12/22 02:12:52;;;;;;;0.37;0.27;;;10.20;99.90;;;;;;5022194;28;20440;-89
2020/12/22 02:15:18;;;;;;;1.33;0.30;;;10.70;99.90;;;;;;5019262;28;20429;-91
2020/12/22 02:17:45;;;;;;;0.40;0.30;;;10.30;99.90;;;;;;5012068;28;20490;-88
2020/12/22 02:20:12;;;;;;;0.40;0.30;;;10.60;99.90;;;;;;5019817;28;20515;-91
2020/12/22 02:22:40;;;;;;;0.53;0.33;;;10.60;99.90;;;;;;5015615;28;20467;-86
2020/12/22 02:25:13;;;;;;;0.87;0.47;;;10.80;99.90;;;;;;5016665;28;20447;-93
2020/12/22 02:27:40;;;;;;;0.50;0.30;;;;;;;;;;5015287;28;20447;-86
2020/12/22 02:30:07;;;;;;;0.70;0.40;;;10.50;99.90;;;;;;5017795;28;20473;-91
2020/12/22 02:32:34;;;;;;;0.40;0.30;;;10.60;99.90;;;;;;5018334;28;20449;-91
2020/12/22 02:35:00;;;;;;;0.30;0.20;;;;;;;;;;5016038;28;20464;-91
2020/12/22 02:37:27;;;;;;;1.10;0.40;;;10.40;99.90;;;;;;5016727;28;20526;-90
2020/12/22 02:39:54;;;;;;;0.30;0.20;;;10.70;99.90;;;;;;5011847;28;20448;-90
2020/12/22 02:42:22;;;;;;;0.40;0.30;;;10.70;99.90;;;;;;5017343;28;20452;-91
2020/12/22 02:44:49;;;;;;;0.40;0.30;;;10.80;99.90;;;;;;5009334;28;21008;-93
2020/12/22 02:47:16;;;;;;;0.40;0.30;;;10.70;99.90;;;;;;5015356;28;20578;-89
2020/12/22 02:49:44;;;;;;;0.40;0.20;;;10.90;99.90;;;;;;5014900;28;20451;-91
2020/12/22 02:52:11;;;;;;;0.80;0.40;;;10.80;99.90;;;;;;5014577;28;20460;-90
2020/12/22 02:54:38;;;;;;;0.50;0.30;;;11.00;99.90;;;;;;5014322;28;20477;-94
2020/12/22 02:57:05;;;;;;;0.40;0.20;;;13.10;99.90;;;;;;5010052;28;20453;-91
2020/12/22 02:59:31;;;;;;;0.97;0.30;;;10.90;99.90;;;;;;5018763;28;20485;-92
2020/12/22 03:01:58;;;;;;;1.03;0.40;;;;;;;;;;5017586;28;20461;-93
2020/12/22 03:04:24;;;;;;;0.40;0.30;;;11.00;99.90;;;;;;5019675;28;20881;-93
2020/12/22 03:06:51;;;;;;;0.40;0.30;;;;;;;;;;5013200;28;20461;-91
2020/12/22 03:09:17;;;;;;;0.90;0.40;;;10.60;99.90;;;;;;5017435;28;20461;-94
2020/12/22 03:11:44;;;;;;;0.40;0.27;;;;;;;;;;5006504;28;20471;-92
2020/12/22 03:14:11;;;;;;;0.50;0.30;;;10.70;99.90;;;;;;5015705;28;20438;-91
2020/12/22 03:16:37;;;;;;;0.40;0.30;;;;;;;;;;5016299;28;20476;-92
2020/12/22 03:19:05;;;;;;;0.40;0.30;;;;;;;;;;5017721;28;20487;-94
2020/12/22 03:21:32;;;;;;;0.40;0.30;;;;;;;;;;5017929;28;20517;-94
2020/12/22 03:23:58;;;;;;;1.17;0.50;;;;;;;;;;5018050;28;20453;-93
2020/12/22 03:26:26;;;;;;;0.70;0.40;;;;;;;;;;5018773;28;20459;-92
2020/12/22 03:28:55;;;;;;;0.40;0.30;;;10.80;99.90;;;;;;5019787;28;20458;-91
2020/12/22 03:31:22;;;;;;;0.53;0.30;;;;;;;;;;5019821;28;20539;-91
2020/12/22 03:33:49;;;;;;;0.60;0.40;;;;;;;;;;5014269;28;20436;-91
2020/12/22 03:36:16;;;;;;;0.40;0.20;;;;;;;;;;5013027;28;20459;-95
2020/12/22 03:38:42;;;;;;;0.40;0.30;;;;;;;;;;5017852;28;20500;-92
2020/12/22 03:41:10;;;;;;;0.37;0.23;;;;;;;;;;5017621;28;20455;-92
2020/12/22 03:43:36;;;;;;;1.23;0.40;;;;;;;;;;5013386;28;20451;-93
2020/12/22 03:46:06;;;;;;;0.40;0.30;;;11.20;99.90;;;;;;5016155;28;20790;-91
2020/12/22 03:48:33;;;;;;;0.40;0.30;;;11.00;99.90;;;;;;5017553;28;20453;-91
2020/12/22 03:51:00;;;;;;;0.40;0.23;;;;;;;;;;5013165;28;20465;-93
2020/12/22 03:53:27;;;;;;;0.50;0.30;;;;;;;;;;5015310;28;20515;-93
2020/12/22 03:55:54;;;;;;;0.50;0.30;;;11.10;99.90;;;;;;5016792;28;20487;-93
2020/12/22 03:58:20;;;;;;;0.40;0.20;;;;;;;;;;5014952;28;20829;-94
2020/12/22 04:00:47;;;;;;;0.40;0.20;;;;;;;;;;5015832;28;20918;-92
2020/12/22 04:03:14;;;;;;;0.40;0.30;;;;;;;;;;5016311;28;20825;-92
2020/12/22 04:05:41;;;;;;;0.30;0.20;;;10.70;99.90;;;;;;5013369;28;20449;-90
2020/12/22 04:08:08;;;;;;;0.50;0.30;;;;;;;;;;5008860;28;20453;-91
2020/12/22 04:10:34;;;;;;;0.40;0.30;;;;;;;;;;5011483;28;20502;-92
2020/12/22 04:13:01;;;;;;;0.40;0.30;;;11.10;99.90;;;;;;5019318;28;20463;-93
2020/12/22 04:15:27;;;;;;;1.13;0.40;;;;;;;;;;5013961;28;20464;-94
2020/12/22 04:17:54;;;;;;;0.40;0.20;;;;;;;;;;5018668;28;20482;-93
2020/12/22 04:20:20;;;;;;;0.50;0.30;;;;;;;;;;5015168;28;20462;-92
2020/12/22 04:22:47;;;;;;;1.40;0.40;;;11.10;99.90;;;;;;5017741;28;20439;-91
2020/12/22 04:25:14;;;;;;;0.40;0.30;;;;;;;;;;5019820;28;20963;-89
2020/12/22 04:27:41;;;;;;;0.60;0.30;;;;;;;;;;5018688;28;20445;-94
2020/12/22 04:30:07;;;;;;;0.30;0.20;;;;;;;;;;5019111;28;20458;-90
2020/12/22 04:32:34;;;;;;;0.40;0.30;;;;;;;;;;5021165;28;20454;-93
2020/12/22 04:35:00;;;;;;;0.40;0.30;;;;;;;;;;5020768;28;20450;-93
2020/12/22 04:37:27;;;;;;;0.60;0.37;;;;;;;;;;5017462;28;20431;-95
2020/12/22 04:39:55;;;;;;;0.40;0.30;;;10.60;99.90;;;;;;5020023;28;20493;-94
2020/12/22 04:42:22;;;;;;;0.40;0.20;;;10.90;99.90;;;;;;5016727;28;20455;-91
2020/12/22 04:44:49;;;;;;;0.37;0.20;;;10.80;99.90;;;;;;5016769;28;20450;-91
2020/12/22 04:47:17;;;;;;;0.40;0.20;;;11.10;99.90;;;;;;5018017;28;20459;-93
2020/12/22 04:49:46;;;;;;;0.30;0.20;;;10.80;99.90;;;;;;5017803;28;20457;-90
2020/12/22 04:52:14;;;;;;;0.50;0.30;;;10.80;99.90;;;;;;5019619;28;20434;-94
2020/12/22 04:54:40;;;;;;;0.30;0.20;;;10.80;99.90;;;;;;5016167;28;20497;-91
2020/12/22 04:57:08;;;;;;;0.40;0.30;;;12.10;99.90;;;;;;5018914;28;20455;-94
2020/12/22 04:59:37;;;;;;;0.77;0.40;;;;;;;;;;5015139;28;20505;-93
2020/12/22 05:02:03;;;;;;;0.80;0.30;;;;;;;;;;5021461;28;20942;-91
2020/12/22 05:04:34;;;;;;;0.50;0.30;;;10.60;99.90;;;;;;5016085;28;20954;-93
2020/12/22 05:07:01;;;;;;;0.40;0.30;;;;;;;;;;5018152;28;20463;-91
2020/12/22 05:09:28;;;;;;;0.40;0.30;;;;;;;;;;5016231;28;20452;-92
2020/12/22 05:11:54;;;;;;;0.87;0.40;;;11.00;99.90;;;;;;5017820;28;20465;-88
2020/12/22 05:14:25;;;;;;;0.40;0.20;;;10.90;99.90;;;;;;5014339;28;20446;-94
2020/12/22 05:16:52;;;;;;;0.40;0.20;;;;;;;;;;5016209;28;20514;-94
2020/12/22 05:19:19;;;;;;;0.50;0.30;;;;;;;;;;5014537;28;20482;-93
2020/12/22 05:21:46;;;;;;;0.40;0.30;;;;;;;;;;5017812;28;20466;-94
2020/12/22 05:24:13;;;;;;;0.30;0.20;;;11.00;99.90;;;;;;5018852;28;20521;-95
2020/12/22 05:26:41;;;;;;;2.40;0.40;;;11.00;99.90;;;;;;5015667;28;20791;-92
2020/12/22 05:29:09;;;;;;;0.40;0.20;;;11.00;99.90;;;;;;5019438;28;20934;-92
2020/12/22 05:31:42;;;;;;;0.40;0.20;;;11.30;99.90;;;;;;5014133;28;20432;-90
2020/12/22 05:34:10;;;;;;;0.40;0.30;;;11.30;99.90;;;;;;5016260;28;20428;-91
2020/12/22 05:36:41;;;;;;;0.40;0.20;;;10.90;99.90;;;;;;5016302;28;20506;-91
2020/12/22 05:39:09;;;;;;;0.30;0.20;;;10.80;99.90;;;;;;5016668;28;20487;-93
2020/12/22 05:41:35;;;;;;;2.40;0.47;;;10.90;99.90;;;;;;5016335;28;20461;-92
2020/12/22 05:44:02;;;;;;;2.53;0.43;;;11.10;99.90;;;;;;5022031;28;20439;-88
2020/12/22 05:46:30;;;;;;;0.40;0.30;;;11.00;99.90;;;;;;5016047;28;20589;-89
2020/12/22 05:49:00;;;;;;;0.40;0.20;;;11.10;99.90;;;;;;5017608;28;20460;-93
2020/12/22 05:51:27;;;;;;;0.30;0.20;;;;;;;;;;5016476;28;20451;-93
2020/12/22 05:53:54;;;;;;;2.40;0.30;;;11.00;99.90;;;;;;5015103;28;20504;-93
2020/12/22 05:56:23;;;;;;;0.40;0.27;;;11.20;99.90;;;;;;5015964;28;20532;-90
2020/12/22 05:58:50;;;;;;;0.30;0.20;;;11.30;99.90;;;;;;5012116;28;20498;-93
2020/12/22 06:01:30;;;;;;;0.70;0.30;;;11.30;99.90;;;;;;5011539;28;20447;-90
2020/12/22 06:03:57;;;;;;;0.40;0.30;;;11.20;99.90;;;;;;5015473;28;20454;-90
2020/12/22 06:06:26;;;;;;;0.50;0.30;;;11.00;99.90;;;;;;5016287;28;20439;-90
2020/12/22 06:08:53;;;;;;;0.40;0.30;;;11.30;99.90;;;;;;5019054;28;20453;-92
2020/12/22 06:11:19;;;;;;;0.40;0.30;;;;;;;;;;5014516;28;20463;-95
2020/12/22 06:13:48;;;;;;;0.40;0.30;;;11.40;99.90;;;;;;5018040;28;20456;-92
2020/12/22 06:16:19;;;;;;;0.90;0.33;;;11.30;99.90;;;;;;5013149;28;20489;-93
2020/12/22 06:18:47;;;;;;;1.50;0.30;;;11.50;99.90;;;;;;5017011;28;20498;-95
2020/12/22 06:21:16;;;;;;;1.27;0.40;;;11.00;99.90;;;;;;5016137;28;20444;-93
2020/12/22 06:23:44;;;;;;;0.50;0.30;;;11.50;99.90;;;;;;5012139;28;20450;-89
2020/12/22 06:26:12;;;;;;;0.30;0.20;;;11.10;99.90;;;;;;5016057;28;20443;-93
2020/12/22 06:28:39;;;;;;;0.40;0.30;;;;;;;;;;5012139;28;20872;-93
2020/12/22 06:31:20;;;;;;;0.40;0.30;;;11.30;99.90;;;;;;5017081;28;20946;-94
2020/12/22 06:33:47;;;;;;;0.73;0.37;;;;;;;;;;5014366;28;20467;-94
2020/12/22 06:36:14;;;;;;;0.90;0.20;;;11.40;99.90;;;;;;5018081;28;20459;-92
2020/12/22 06:38:56;;;;;;;0.50;0.30;;;11.70;99.90;;;;;;5015823;28;20483;-92
2020/12/22 06:41:51;;;;;;;0.60;0.30;;;12.30;99.90;;;;;;5016659;28;20451;-92
2020/12/22 06:44:23;;;;;;;0.40;0.30;;;11.00;99.90;;;;;;5014363;28;20458;-92
2020/12/22 06:46:51;;;;;;;0.47;0.37;;;11.40;99.90;;;;;;5011816;28;20454;-92
2020/12/22 06:49:19;;;;;;;1.03;0.30;;;;;;;;;;5015294;28;20534;-93
2020/12/22 06:51:46;;;;;;;0.40;0.30;;;;;;;;;;5013521;28;20443;-91
2020/12/22 06:54:33;;;;;;;0.40;0.20;;;11.40;99.90;;;;;;5014600;28;20446;-93
2020/12/22 06:56:59;;;;;;;0.50;0.30;;;11.20;99.90;;;;;;5011370;28;20459;-92
2020/12/22 06:59:48;;;;;;;0.40;0.30;;;11.30;99.90;;;;;;5015026;28;20478;-92
2020/12/22 07:02:33;;;;;;;1.50;0.40;;;11.40;99.90;;;;;;5013251;28;20447;-94
2020/12/22 07:05:00;;;;;;;0.40;0.27;;;11.40;99.90;;;;;;5019100;28;20471;-92
2020/12/22 07:07:27;;;;;;;0.40;0.30;;;;;;;;;;5019398;28;20451;-89
2020/12/22 07:10:03;;;;;;;0.40;0.30;;;11.60;99.90;;;;;;5019558;28;20451;-91
2020/12/22 07:12:31;;;;;;;0.40;0.30;;;11.50;99.90;;;;;;5014208;28;20462;-91
2020/12/22 07:14:58;;;;;;;0.33;0.20;;;11.50;99.90;;;;;;5015152;28;20524;-90
2020/12/22 07:17:25;;;;;;;0.60;0.30;;;;;;;;;;5014317;28;20452;-92
2020/12/22 07:19:54;;;;;;;0.30;0.20;;;11.50;99.90;;;;;;5013862;28;20453;-92
2020/12/22 07:22:22;;;;;;;0.40;0.30;;;;;;;;;;5012721;28;20445;-95
2020/12/22 07:24:49;;;;;;;0.40;0.27;;;11.70;99.90;;;;;;5015327;28;20462;-93
2020/12/22 07:27:16;;;;;;;0.40;0.30;;;11.70;99.90;;;;;;5014531;28;20444;-90
2020/12/22 07:29:43;;;;;;;0.40;0.30;;;;;;;;;;5015674;28;20548;-94
2020/12/22 07:32:11;;;;;;;0.40;0.33;;;12.50;99.90;;;;;;5015240;28;20447;-88
2020/12/22 07:34:39;;;;;;;0.40;0.30;;;;;;;;;;5015364;28;20460;-93
2020/12/22 07:37:07;;;;;;;0.40;0.20;;;11.90;99.90;;;;;;5017398;28;20508;-94
2020/12/22 07:39:34;;;;;;;0.50;0.40;;;;;;;;;;5017892;28;20557;-92
2020/12/22 07:42:12;;;;;;;0.40;0.30;;;11.80;99.90;;;;;;5018924;28;20464;-94
2020/12/22 07:44:40;;;;;;;0.40;0.20;;;11.90;99.90;;;;;;5016269;28;20478;-92
2020/12/22 07:47:08;;;;;;;1.00;0.33;;;;;;;;;;5017508;28;20468;-93
2020/12/22 07:49:35;;;;;;;1.23;0.30;;;11.90;99.90;;;;;;5030163;28;20501;-94
2020/12/22 07:52:01;;;;;;;1.03;0.30;;;;;;;;;;5021382;28;20544;-92
2020/12/22 07:54:28;;;;;;;0.77;0.30;;;;;;;;;;5023752;28;20967;-91
2020/12/22 07:56:58;;;;;;;0.73;0.30;;;12.10;99.90;;;;;;5029132;28;20434;-93
2020/12/22 07:59:26;;;;;;;0.50;0.33;;;12.00;99.90;;;;;;5025009;28;20491;-93
2020/12/22 08:01:56;;;;;;;0.50;0.40;;;11.90;99.90;;;;;;5025333;28;20481;-92
2020/12/22 08:04:25;;;;;;;0.57;0.40;;;11.90;99.90;;;;;;5022984;28;20452;-93
2020/12/22 08:06:58;;;;;;;0.57;0.30;;;12.00;99.90;;;;;;5021501;28;20461;-92
2020/12/22 08:09:26;;;;;;;0.40;0.30;;;11.90;99.90;;;;;;5017243;28;20447;-94
2020/12/22 08:11:54;;;;;;;0.50;0.30;;;12.20;99.90;;;;;;5014934;28;20511;-91
2020/12/22 08:14:22;;;;;;;0.87;0.30;;;12.20;99.90;;;;;;5018515;28;20873;-92
2020/12/22 08:17:03;;;;;;;1.27;0.30;;;12.00;99.90;;;;;;5019712;28;20506;-93
2020/12/22 08:19:34;;;;;;;0.90;0.37;;;12.00;99.90;;;;;;5017435;28;20479;-92
2020/12/22 08:22:01;;;;;;;0.57;0.30;;;;;;;;;;5024075;28;20450;-93
2020/12/22 08:24:35;;;;;;;0.53;0.40;;;12.00;99.90;;;;;;5022878;28;20446;-93
2020/12/22 08:27:02;;;;;;;0.40;0.30;;;;;;;;;;5022899;28;20443;-93
2020/12/22 08:29:39;;;;;;;0.50;0.40;;;12.00;99.90;;;;;;5025884;28;20474;-93
2020/12/22 08:32:11;;;;;;;0.40;0.20;;;;;;;;;;5025823;23;21085;-93
2020/12/22 08:34:45;;;;;;;0.40;0.30;;;12.00;99.90;;;;;;5009302;28;20431;-93
2020/12/22 08:37:12;;;;;;;0.50;0.30;;;;;;;;;;5009641;28;20468;-94
2020/12/22 08:39:41;;;;;;;0.40;0.27;;;12.00;99.90;;;;;;5003952;28;20466;-94
2020/12/22 08:42:08;;;;;;;0.50;0.30;;;12.20;99.90;;;;;;5022608;28;20459;-94
2020/12/22 08:44:36;;;;;;;1.43;0.20;;;;;;;;;;5009158;28;20464;-92
2020/12/22 08:47:12;;;;;;;0.40;0.30;;;12.00;99.90;;;;;;5011407;28;20457;-93
2020/12/22 08:50:26;;;;;;;0.90;0.40;;;12.10;99.90;;;;;;5019142;28;20507;-95
2020/12/22 08:52:52;;;;;;;1.80;0.40;;;;;;;;;;4957627;29;20446;-93
2020/12/22 08:55:19;;;;;;;0.50;0.30;;;;;;;;;;4940840;29;20455;-94
2020/12/22 08:57:46;;;;;;;3.00;0.40;;;;;;;;;;4941198;29;20491;-94
2020/12/22 09:00:13;;;;;;;0.70;0.33;;;12.20;99.90;;;;;;4959921;28;21008;-95
2020/12/22 09:02:41;;;;;;;0.40;0.20;;;;;;;;;;4964455;29;20458;-92
2020/12/22 09:05:15;;;;;;;0.40;0.30;;;11.70;99.90;;;;;;4957413;29;20881;-93
2020/12/22 09:07:42;;;;;;;0.40;0.20;;;12.20;99.90;;;;;;4961524;29;20469;-92
2020/12/22 09:10:09;;;;;;;0.40;0.30;;;12.20;99.90;;;;;;4965162;28;20454;-91
2020/12/22 09:12:36;;;;;;;1.27;0.30;;;;;;;;;;5000162;28;21003;-93
2020/12/22 09:15:06;;;;;;;0.40;0.30;;;12.30;99.90;;;;;;5007755;28;20838;-87
2020/12/22 09:17:38;;;;;;;0.50;0.30;;;11.80;99.90;;;;;;5000305;28;20559;-92
2020/12/22 09:20:05;;;;;;;1.33;1.23;;;;;;;;;;4997913;28;20430;-95
2020/12/22 09:22:33;;;;;;;1.43;0.73;;;12.00;99.90;;;;;;4996168;28;20444;-93
2020/12/22 09:25:01;;;;;;;0.40;0.20;;;12.00;99.90;;;;;;4991058;28;20455;-94
2020/12/22 09:27:29;;;;;;;0.40;0.30;;;11.90;99.90;;;;;;4999975;28;20492;-95
2020/12/22 09:29:55;;;;;;;0.40;0.20;;;;;;;;;;4997266;28;20517;-93
2020/12/22 09:32:22;;;;;;;0.60;0.30;;;;;;;;;;4998611;28;20476;-94
2020/12/22 09:34:48;;;;;;;0.40;0.30;;;;;;;;;;4998620;28;20922;-94
2020/12/22 09:37:15;;;;;;;0.50;0.37;;;;;;;;;;4999028;28;20464;-90
2020/12/22 09:39:42;;;;;;;0.70;0.50;;;12.00;99.90;;;;;;4996422;28;21004;-91
2020/12/22 09:42:09;;;;;;;0.50;0.30;;;11.80;99.90;;;;;;4994242;28;20441;-90
2020/12/22 09:44:36;;;;;;;9.13;0.47;;;11.80;99.90;;;;;;4996754;28;20460;-90
2020/12/22 09:47:04;;;;;;;0.40;0.30;;;12.00;99.90;;;;;;4996595;28;20964;-90
2020/12/22 09:49:30;;;;;;;0.40;0.20;;;11.80;99.90;;;;;;4996651;28;20472;-88
2020/12/22 09:51:57;;;;;;;0.40;0.30;;;;;;;;;;4993093;28;20500;-90
2020/12/22 09:54:24;;;;;;;0.87;0.30;;;;;;;;;;4995820;28;20447;-93
2020/12/22 09:56:51;;;;;;;0.70;0.40;;;12.10;99.90;;;;;;4994917;28;20516;-92
2020/12/22 09:59:18;;;;;;;0.40;0.30;;;12.00;99.90;;;;;;4992729;28;20489;-89
2020/12/22 10:01:45;;;;;;;0.40;0.20;;;12.10;99.90;;;;;;4997174;28;20454;-91
2020/12/22 10:04:12;;;;;;;0.70;0.30;;;12.20;99.90;;;;;;4991987;28;20490;-91
2020/12/22 10:06:40;;;;;;;0.60;0.30;;;12.40;99.90;;;;;;4993150;28;20442;-89
2020/12/22 10:09:06;;;;;;;0.40;0.30;;;;;;;;;;4988188;28;20450;-94
2020/12/22 10:11:34;;;;;;;0.40;0.30;;;12.10;99.90;;;;;;4995902;28;20945;-90
2020/12/22 10:14:02;;;;;;;0.73;0.40;;;12.20;99.90;;;;;;4995215;28;20451;-88
2020/12/22 10:16:28;;;;;;;2.93;0.30;;;11.90;99.90;;;;;;4990810;28;20503;-91
2020/12/22 10:18:55;;;;;;;0.50;0.40;;;12.50;99.90;;;;;;4994196;28;20984;-93
2020/12/22 10:21:21;;;;;;;1.37;0.40;;;12.30;99.90;;;;;;4994358;28;20951;-94
2020/12/22 10:23:49;;;;;;;0.60;0.30;;;12.50;99.90;;;;;;4998645;28;20966;-93
2020/12/22 10:26:18;;;;;;;0.40;0.30;;;12.40;99.90;;;;;;4995939;28;20453;-94
2020/12/22 10:28:45;;;;;;;0.50;0.30;;;12.50;99.90;;;;;;5000725;28;20535;-90
2020/12/22 10:31:13;;;;;;;2.40;0.30;;;12.50;99.90;;;;;;5000919;28;20450;-93
2020/12/22 10:33:40;;;;;;;1.47;0.70;;;12.70;99.90;;;;;;4997387;28;20481;-88
2020/12/22 10:36:06;;;;;;;0.50;0.30;;;;;;;;;;4994751;28;20459;-89
2020/12/22 10:38:33;;;;;;;0.60;0.40;;;;;;;;;;4991327;28;21070;-89
2020/12/22 10:40:59;;;;;;;0.40;0.30;;;;;;;;;;4994335;28;20479;-90
2020/12/22 10:43:26;;;;;;;0.50;0.37;;;12.90;99.90;;;;;;4996248;28;20455;-89
2020/12/22 10:45:52;;;;;;;0.50;0.30;;;;;;;;;;4995766;28;20450;-87
2020/12/22 10:48:19;;;;;;;0.70;0.40;;;12.70;99.90;;;;;;4994569;28;20459;-88
2020/12/22 10:50:46;;;;;;;0.50;0.30;;;;;;;;;;4994332;28;20450;-88
2020/12/22 10:53:12;;;;;;;1.73;0.43;;;12.50;99.90;;;;;;4992976;28;20961;-85
2020/12/22 10:55:39;;;;;;;0.50;0.30;;;12.80;99.90;;;;;;4993926;28;20492;-89
2020/12/22 10:58:07;;;;;;;0.50;0.30;;;12.70;99.90;;;;;;4993984;28;20551;-86
2020/12/22 11:00:33;;;;;;;0.90;0.40;;;12.60;99.90;;;;;;4994332;28;20488;-89
2020/12/22 11:03:02;;;;;;;0.50;0.30;;;12.40;99.90;;;;;;4993798;28;20465;-89
2020/12/22 11:08:14;;;;;;;2.10;0.30;;;12.50;99.90;;;;;;4993000;28;20481;-87
2020/12/22 11:10:41;;;;;;;0.80;0.37;;;12.50;99.90;;;;;;4994476;28;20964;-87
2020/12/22 11:13:07;;;;;;;0.57;0.27;;;12.50;99.90;;;;;;4994412;28;20520;-86
2020/12/22 11:15:34;;;;;;;0.80;0.30;;;;;;;;;;4993955;28;20463;-87
2020/12/22 11:18:00;;;;;;;0.70;0.40;;;;;;;;;;4992880;28;20456;-86
2020/12/22 11:20:26;;;;;;;0.50;0.30;;;12.30;99.90;;;;;;4988646;28;20852;-85
2020/12/22 11:22:54;;;;;;;1.40;0.40;;;12.50;99.90;;;;;;4980813;28;20452;-86
2020/12/22 11:25:20;;;;;;;0.40;0.30;;;;;;;;;;4992565;28;20457;-85
2020/12/22 11:27:47;;;;;;;0.87;0.40;;;;;;;;;;4992794;28;20476;-85
2020/12/22 11:30:13;;;;;;;0.77;0.50;;;12.40;99.90;;;;;;4995862;28;20462;-87
2020/12/22 11:32:40;;;;;;;0.60;0.40;;;12.60;99.90;;;;;;5005785;28;20478;-85
2020/12/22 11:35:07;;;;;;;1.07;0.40;;;12.50;99.90;;;;;;4991922;28;20458;-85
2020/12/22 11:37:34;;;;;;;0.40;0.30;;;12.20;99.90;;;;;;4989710;28;20937;-88
2020/12/22 11:40:01;;;;;;;0.90;0.30;;;12.50;99.90;;;;;;4991916;28;20920;-88
2020/12/22 11:42:27;;;;;;;0.50;0.30;;;;;;;;;;4993127;28;20484;-86
2020/12/22 11:44:54;;;;;;;0.40;0.30;;;12.20;99.90;;;;;;4993646;28;20457;-86
2020/12/22 11:47:20;;;;;;;1.80;0.43;;;12.50;99.90;;;;;;5003609;28;20473;-88
2020/12/22 11:49:46;;;;;;;0.50;0.30;;;12.40;99.90;;;;;;4988644;28;20953;-86
2020/12/22 11:52:13;;;;;;;0.60;0.30;;;;;;;;;;4993132;28;20453;-87
2020/12/22 11:54:39;;;;;;;0.63;0.50;;;12.50;99.90;;;;;;4988870;28;20457;-86
2020/12/22 11:57:06;;;;;;;0.40;0.40;;;12.30;99.90;;;;;;4993418;28;20497;-87
2020/12/22 11:59:34;;;;;;;0.80;0.40;;;12.30;99.90;;;;;;4993919;28;20497;-88
2020/12/22 12:02:03;;;;;;;0.70;0.40;;;12.40;99.90;;;;;;4993604;28;20485;-88
2020/12/22 12:04:30;;;;;;;1.30;0.50;;;;;;;;;;4993594;28;20451;-87
2020/12/22 12:06:56;;;;;;;0.57;0.40;;;12.40;99.90;;;;;;4993484;28;20464;-87
2020/12/22 12:09:22;;;;;;;1.03;0.60;;;12.60;99.90;;;;;;4992340;28;20445;-88
2020/12/22 12:11:49;;;;;;;0.73;0.30;;;12.40;99.90;;;;;;4993240;28;20457;-88
2020/12/22 12:14:18;;;;;;;0.40;0.40;;;12.50;99.90;;;;;;4993207;28;20451;-88
2020/12/22 12:16:46;;;;;;;0.80;0.50;;;12.90;99.90;;;;;;4993480;28;20464;-89
2020/12/22 12:19:12;;;;;;;0.50;0.30;;;12.90;99.90;;;;;;4993665;28;21058;-87
2020/12/22 12:21:38;;;;;;;2.37;0.30;;;12.70;99.90;;;;;;4992118;28;20455;-89
2020/12/22 12:24:05;;;;;;;0.50;0.30;;;12.80;99.90;;;;;;4993128;28;20435;-91
2020/12/22 12:26:31;;;;;;;0.40;0.30;;;12.60;99.90;;;;;;4993466;28;20457;-90
2020/12/22 12:28:57;;;;;;;0.50;0.40;;;12.90;99.90;;;;;;4994902;28;20453;-93
2020/12/22 12:31:26;;;;;;;0.40;0.30;;;12.60;99.90;;;;;;4995509;28;20468;-93
2020/12/22 12:33:53;;;;;;;0.50;0.40;;;12.40;99.90;;;;;;4994269;28;20486;-90
2020/12/22 12:36:19;;;;;;;1.20;0.90;;;12.70;99.90;;;;;;4997809;28;20451;-93
2020/12/22 12:38:46;;;;;;;0.73;0.60;;;12.60;99.90;;;;;;4997307;28;20498;-88
2020/12/22 12:41:12;;;;;;;0.70;0.50;;;12.50;99.90;;;;;;4994351;28;20465;-90
2020/12/22 12:43:39;;;;;;;0.53;0.33;;;;;;;;;;4998785;28;20933;-89
2020/12/22 12:46:05;;;;;;;0.67;0.47;;;12.70;99.90;;;;;;4995344;28;20474;-90
2020/12/22 12:48:33;;;;;;;0.40;0.30;;;12.00;99.90;;;;;;4997768;28;20485;-88
2020/12/22 12:50:59;;;;;;;0.60;0.30;;;;;;;;;;4997083;28;20504;-92
2020/12/22 12:53:26;;;;;;;0.73;0.50;;;;;;;;;;4993129;28;20470;-85
2020/12/22 12:55:52;;;;;;;0.40;0.30;;;12.00;99.90;;;;;;4995913;28;20463;-86
2020/12/22 12:58:19;;;;;;;0.40;0.30;;;12.70;99.90;;;;;;4996057;28;20491;-87
2020/12/22 13:00:45;;;;;;;0.40;0.20;;;;;;;;;;4996071;28;20877;-85
2020/12/22 13:03:12;;;;;;;0.40;0.30;;;;;;;;;;4998856;28;20812;-91
2020/12/22 13:05:40;;;;;;;0.50;0.30;;;12.20;99.90;;;;;;4995906;28;20454;-92
2020/12/22 13:08:07;;;;;;;0.50;0.30;;;;;;;;;;4997881;28;20446;-93
2020/12/22 13:10:33;;;;;;;0.50;0.30;;;;;;;;;;4998816;28;20457;-95
2020/12/22 13:13:00;;;;;;;0.50;0.30;;;12.60;99.90;;;;;;4998647;28;20478;-91
2020/12/22 13:15:26;;;;;;;0.60;0.50;;;12.40;99.90;;;;;;4997840;28;20430;-92
2020/12/22 13:17:54;;;;;;;0.70;0.50;;;;;;;;;;4993385;28;20452;-92
2020/12/22 13:20:21;;;;;;;3.50;0.40;;;;;;;;;;5001642;28;20490;-93
2020/12/22 13:22:48;;;;;;;0.80;0.40;;;11.60;99.90;;;;;;5002877;28;20852;-92
2020/12/22 13:25:15;;;;;;;0.93;0.40;;;;;;;;;;4998199;28;20482;-92
2020/12/22 13:27:41;;;;;;;0.50;0.30;;;;;;;;;;4998374;28;20450;-92
2020/12/22 13:30:09;;;;;;;0.77;0.50;;;;;;;;;;4995570;28;20468;-92
2020/12/22 13:32:35;;;;;;;0.40;0.30;;;12.50;99.90;;;;;;4995254;28;20552;-93